sensor_id;sensor_type;location;lat;lon;timestamp;pressure;altitude;pressure_sealevel;temperature;humidity
40788;BME280;26497;52.494;7.546;2023-04-04T00:02:05;102452.25;;;5.41;49.53
40788;BME280;26497;52.494;7.546;2023-04-04T00:04:33;102458.22;;;5.38;49.55
40788;BME280;26497;52.494;7.546;2023-04-04T00:07:00;102452.56;;;5.47;49.14
40788;BME280;26497;52.494;7.546;2023-04-04T00:09:28;102455.47;;;5.53;49.10
40788;BME280;26497;52.494;7.546;2023-04-04T00:11:55;102458.31;;;5.40;49.13
40788;BME280;26497;52.494;7.546;2023-04-04T00:14:23;102458.31;;;5.40;49.16
40788;BME280;26497;52.494;7.546;2023-04-04T00:16:50;102453.94;;;5.22;49.64
40788;BME280;26497;52.494;7.546;2023-04-04T00:19:17;102446.91;;;5.21;49.67
40788;BME280;26497;52.494;7.546;2023-04-04T00:21:44;102455.63;;;5.04;49.72
40788;BME280;26497;52.494;7.546;2023-04-04T00:24:11;102454.47;;;4.98;50.01
40788;BME280;26497;52.494;7.546;2023-04-04T00:26:39;102450.00;;;4.96;49.99
40788;BME280;26497;52.494;7.546;2023-04-04T00:29:06;102449.50;;;5.03;49.75
40788;BME280;26497;52.494;7.546;2023-04-04T00:31:33;102449.06;;;5.12;49.84
40788;BME280;26497;52.494;7.546;2023-04-04T00:34:00;102442.53;;;5.04;49.71
40788;BME280;26497;52.494;7.546;2023-04-04T00:36:27;102445.97;;;5.02;49.77
40788;BME280;26497;52.494;7.546;2023-04-04T00:38:54;102447.78;;;5.04;49.39
40788;BME280;26497;52.494;7.546;2023-04-04T00:41:21;102443.03;;;4.96;49.65
40788;BME280;26497;52.494;7.546;2023-04-04T00:43:50;102445.84;;;4.83;49.50
40788;BME280;26497;52.494;7.546;2023-04-04T00:46:18;102439.97;;;4.87;49.29
40788;BME280;26497;52.494;7.546;2023-04-04T00:48:47;102435.88;;;4.92;49.35
40788;BME280;26497;52.494;7.546;2023-04-04T00:51:17;102439.97;;;4.87;49.10
40788;BME280;26497;52.494;7.546;2023-04-04T00:53:45;102436.22;;;4.82;49.46
40788;BME280;26497;52.494;7.546;2023-04-04T00:56:13;102434.09;;;4.75;49.71
40788;BME280;26497;52.494;7.546;2023-04-04T00:58:41;102436.53;;;4.71;49.47
40788;BME280;26497;52.494;7.546;2023-04-04T01:01:09;102431.81;;;4.64;49.75
40788;BME280;26497;52.494;7.546;2023-04-04T01:03:36;102434.97;;;4.57;49.81
40788;BME280;26497;52.494;7.546;2023-04-04T01:06:05;102435.94;;;4.59;49.47
40788;BME280;26497;52.494;7.546;2023-04-04T01:08:35;102435.41;;;4.66;49.14
40788;BME280;26497;52.494;7.546;2023-04-04T01:11:03;102433.97;;;4.55;49.82
40788;BME280;26497;52.494;7.546;2023-04-04T01:13:31;102425.72;;;4.47;50.01
40788;BME280;26497;52.494;7.546;2023-04-04T01:15:59;102426.94;;;4.54;50.17
40788;BME280;26497;52.494;7.546;2023-04-04T01:18:28;102419.28;;;4.40;50.26
40788;BME280;26497;52.494;7.546;2023-04-04T01:21:00;102430.28;;;4.35;50.57
40788;BME280;26497;52.494;7.546;2023-04-04T01:23:48;102427.44;;;4.30;50.96
40788;BME280;26497;52.494;7.546;2023-04-04T01:26:20;102425.31;;;4.23;50.80
40788;BME280;26497;52.494;7.546;2023-04-04T01:28:48;102423.34;;;4.19;50.69
40788;BME280;26497;52.494;7.546;2023-04-04T01:31:24;102435.59;;;4.20;51.14
40788;BME280;26497;52.494;7.546;2023-04-04T01:34:08;102437.06;;;4.15;51.26
40788;BME280;26497;52.494;7.546;2023-04-04T01:36:43;102424.47;;;4.07;51.13
40788;BME280;26497;52.494;7.546;2023-04-04T01:39:21;102428.25;;;4.12;50.99
40788;BME280;26497;52.494;7.546;2023-04-04T01:41:52;102423.34;;;4.19;50.51
40788;BME280;26497;52.494;7.546;2023-04-04T01:44:20;102428.94;;;4.10;50.78
40788;BME280;26497;52.494;7.546;2023-04-04T01:46:52;102423.97;;;3.98;51.05
40788;BME280;26497;52.494;7.546;2023-04-04T01:49:20;102417.59;;;3.93;51.19
40788;BME280;26497;52.494;7.546;2023-04-04T01:51:47;102406.75;;;3.85;51.89
40788;BME280;26497;52.494;7.546;2023-04-04T01:54:15;102409.03;;;3.79;51.70
40788;BME280;26497;52.494;7.546;2023-04-04T01:56:43;102408.56;;;3.71;51.94
40788;BME280;26497;52.494;7.546;2023-04-04T01:59:12;102413.28;;;3.62;52.15
40788;BME280;26497;52.494;7.546;2023-04-04T02:01:39;102425.09;;;3.55;51.98
40788;BME280;26497;52.494;7.546;2023-04-04T02:04:06;102413.41;;;3.48;52.75
40788;BME280;26497;52.494;7.546;2023-04-04T02:06:35;102422.22;;;3.50;52.31
40788;BME280;26497;52.494;7.546;2023-04-04T02:09:02;102422.66;;;3.58;53.15
40788;BME280;26497;52.494;7.546;2023-04-04T02:11:30;102420.56;;;3.67;52.96
40788;BME280;26497;52.494;7.546;2023-04-04T02:13:57;102421.63;;;3.71;53.04
40788;BME280;26497;52.494;7.546;2023-04-04T02:16:25;102417.84;;;3.66;53.04
40788;BME280;26497;52.494;7.546;2023-04-04T02:18:52;102417.22;;;3.70;52.40
40788;BME280;26497;52.494;7.546;2023-04-04T02:21:20;102421.09;;;3.62;52.50
40788;BME280;26497;52.494;7.546;2023-04-04T02:23:46;102429.50;;;3.41;53.35
40788;BME280;26497;52.494;7.546;2023-04-04T02:26:13;102425.56;;;3.33;53.82
40788;BME280;26497;52.494;7.546;2023-04-04T02:28:40;102430.78;;;3.33;53.11
40788;BME280;26497;52.494;7.546;2023-04-04T02:31:07;102427.22;;;3.31;53.73
40788;BME280;26497;52.494;7.546;2023-04-04T02:33:36;102419.84;;;3.23;53.58
40788;BME280;26497;52.494;7.546;2023-04-04T02:36:03;102416.69;;;3.14;53.45
40788;BME280;26497;52.494;7.546;2023-04-04T02:38:30;102410.38;;;3.10;53.99
40788;BME280;26497;52.494;7.546;2023-04-04T02:40:58;102411.84;;;3.20;53.48
40788;BME280;26497;52.494;7.546;2023-04-04T02:43:25;102402.81;;;3.30;53.21
40788;BME280;26497;52.494;7.546;2023-04-04T02:45:51;102403.56;;;3.28;53.00
40788;BME280;26497;52.494;7.546;2023-04-04T02:48:18;102404.44;;;3.28;53.40
40788;BME280;26497;52.494;7.546;2023-04-04T02:50:47;102403.56;;;3.28;52.84
40788;BME280;26497;52.494;7.546;2023-04-04T02:53:14;102393.47;;;3.19;53.83
40788;BME280;26497;52.494;7.546;2023-04-04T02:55:41;102392.31;;;3.14;53.92
40788;BME280;26497;52.494;7.546;2023-04-04T02:58:08;102395.56;;;3.09;53.41
40788;BME280;26497;52.494;7.546;2023-04-04T03:00:35;102394.84;;;3.12;54.03
40788;BME280;26497;52.494;7.546;2023-04-04T03:03:02;102387.84;;;3.11;53.55
40788;BME280;26497;52.494;7.546;2023-04-04T03:05:30;102391.44;;;3.13;54.00
40788;BME280;26497;52.494;7.546;2023-04-04T03:07:59;102382.97;;;3.17;53.88
40788;BME280;26497;52.494;7.546;2023-04-04T03:10:28;102379.03;;;3.09;54.11
40788;BME280;26497;52.494;7.546;2023-04-04T03:12:55;102380.09;;;3.13;53.98
40788;BME280;26497;52.494;7.546;2023-04-04T03:15:23;102366.59;;;3.20;53.24
40788;BME280;26497;52.494;7.546;2023-04-04T03:17:50;102370.66;;;3.30;53.05
40788;BME280;26497;52.494;7.546;2023-04-04T03:20:18;102364.94;;;3.37;52.55
40788;BME280;26497;52.494;7.546;2023-04-04T03:22:45;102374.66;;;3.39;52.40
40788;BME280;26497;52.494;7.546;2023-04-04T03:25:14;102366.13;;;3.27;52.66
40788;BME280;26497;52.494;7.546;2023-04-04T03:27:41;102361.38;;;3.20;53.54
40788;BME280;26497;52.494;7.546;2023-04-04T03:30:09;102358.13;;;3.24;53.45
40788;BME280;26497;52.494;7.546;2023-04-04T03:32:37;102359.81;;;3.38;52.67
40788;BME280;26497;52.494;7.546;2023-04-04T03:35:06;102357.03;;;3.35;52.77
40788;BME280;26497;52.494;7.546;2023-04-04T03:37:33;102360.06;;;3.43;52.79
40788;BME280;26497;52.494;7.546;2023-04-04T03:40:00;102363.75;;;3.47;52.70
40788;BME280;26497;52.494;7.546;2023-04-04T03:42:32;102351.78;;;3.50;52.63
40788;BME280;26497;52.494;7.546;2023-04-04T03:44:59;102359.88;;;3.40;53.03
40788;BME280;26497;52.494;7.546;2023-04-04T03:47:27;102355.88;;;3.30;52.77
40788;BME280;26497;52.494;7.546;2023-04-04T03:49:54;102355.88;;;3.30;52.49
40788;BME280;26497;52.494;7.546;2023-04-04T03:52:22;102353.03;;;3.42;52.73
40788;BME280;26497;52.494;7.546;2023-04-04T03:54:48;102356.50;;;3.58;51.80
40788;BME280;26497;52.494;7.546;2023-04-04T03:57:15;102349.25;;;3.52;51.93
40788;BME280;26497;52.494;7.546;2023-04-04T03:59:44;102355.28;;;3.51;52.29
40788;BME280;26497;52.494;7.546;2023-04-04T04:02:11;102351.88;;;3.52;52.42
40788;BME280;26497;52.494;7.546;2023-04-04T04:04:38;102349.78;;;3.61;51.65
40788;BME280;26497;52.494;7.546;2023-04-04T04:07:05;102351.53;;;3.46;51.80
40788;BME280;26497;52.494;7.546;2023-04-04T04:09:32;102349.28;;;3.37;52.07
40788;BME280;26497;52.494;7.546;2023-04-04T04:12:00;102339.06;;;3.25;51.69
40788;BME280;26497;52.494;7.546;2023-04-04T04:14:26;102340.91;;;3.11;52.08
40788;BME280;26497;52.494;7.546;2023-04-04T04:16:55;102330.13;;;3.05;52.21
40788;BME280;26497;52.494;7.546;2023-04-04T04:19:22;102336.78;;;3.00;52.76
40788;BME280;26497;52.494;7.546;2023-04-04T04:21:49;102332.03;;;2.92;52.42
40788;BME280;26497;52.494;7.546;2023-04-04T04:24:16;102331.75;;;2.88;52.42
40788;BME280;26497;52.494;7.546;2023-04-04T04:26:43;102334.63;;;2.77;52.52
40788;BME280;26497;52.494;7.546;2023-04-04T04:29:10;102337.59;;;2.69;52.90
40788;BME280;26497;52.494;7.546;2023-04-04T04:31:37;102341.19;;;2.71;52.54
40788;BME280;26497;52.494;7.546;2023-04-04T04:34:06;102337.50;;;2.97;52.29
40788;BME280;26497;52.494;7.546;2023-04-04T04:36:33;102333.25;;;3.14;52.22
40788;BME280;26497;52.494;7.546;2023-04-04T04:39:00;102331.59;;;3.31;51.30
40788;BME280;26497;52.494;7.546;2023-04-04T04:41:27;102335.59;;;3.41;51.48
40788;BME280;26497;52.494;7.546;2023-04-04T04:43:55;102337.41;;;3.42;51.45
40788;BME280;26497;52.494;7.546;2023-04-04T04:46:22;102340.00;;;3.42;51.31
40788;BME280;26497;52.494;7.546;2023-04-04T04:48:49;102333.56;;;3.35;51.49
40788;BME280;26497;52.494;7.546;2023-04-04T04:51:17;102341.03;;;3.29;51.92
40788;BME280;26497;52.494;7.546;2023-04-04T04:53:44;102335.09;;;3.32;52.41
40788;BME280;26497;52.494;7.546;2023-04-04T04:56:11;102347.66;;;3.39;51.73
40788;BME280;26497;52.494;7.546;2023-04-04T04:58:38;102346.56;;;3.50;51.41
40788;BME280;26497;52.494;7.546;2023-04-04T05:01:05;102354.38;;;3.50;51.41
40788;BME280;26497;52.494;7.546;2023-04-04T05:03:32;102343.88;;;3.34;52.14
40788;BME280;26497;52.494;7.546;2023-04-04T05:05:59;102351.13;;;3.23;52.53
40788;BME280;26497;52.494;7.546;2023-04-04T05:08:28;102359.88;;;3.23;52.42
40788;BME280;26497;52.494;7.546;2023-04-04T05:10:55;102355.88;;;3.30;52.39
40788;BME280;26497;52.494;7.546;2023-04-04T05:13:22;102359.47;;;3.32;52.50
40788;BME280;26497;52.494;7.546;2023-04-04T05:15:49;102359.34;;;3.46;51.93
40788;BME280;26497;52.494;7.546;2023-04-04T05:18:16;102367.00;;;3.43;52.35
40788;BME280;26497;52.494;7.546;2023-04-04T05:20:50;102370.31;;;3.40;52.23
40788;BME280;26497;52.494;7.546;2023-04-04T05:23:17;102373.72;;;3.54;52.36
40788;BME280;26497;52.494;7.546;2023-04-04T05:25:48;102376.56;;;3.59;52.34
40788;BME280;26497;52.494;7.546;2023-04-04T05:28:16;102383.59;;;3.60;52.61
40788;BME280;26497;52.494;7.546;2023-04-04T05:30:43;102373.34;;;3.79;52.52
40788;BME280;26497;52.494;7.546;2023-04-04T05:33:10;102369.16;;;3.98;52.27
40788;BME280;26497;52.494;7.546;2023-04-04T05:35:37;102374.44;;;3.99;52.31
40788;BME280;26497;52.494;7.546;2023-04-04T05:38:05;102368.00;;;4.09;52.09
40788;BME280;26497;52.494;7.546;2023-04-04T05:40:32;102374.53;;;4.18;51.92
40788;BME280;26497;52.494;7.546;2023-04-04T05:43:01;102372.09;;;4.21;51.72
40788;BME280;26497;52.494;7.546;2023-04-04T05:45:29;102369.00;;;4.28;51.39
40788;BME280;26497;52.494;7.546;2023-04-04T05:47:56;102367.44;;;4.32;51.64
40788;BME280;26497;52.494;7.546;2023-04-04T05:50:23;102376.72;;;4.26;51.62
40788;BME280;26497;52.494;7.546;2023-04-04T05:52:53;102377.47;;;4.40;51.23
40788;BME280;26497;52.494;7.546;2023-04-04T05:55:22;102372.47;;;4.45;51.28
40788;BME280;26497;52.494;7.546;2023-04-04T05:57:49;102373.38;;;4.62;50.88
40788;BME280;26497;52.494;7.546;2023-04-04T06:00:19;102379.19;;;4.75;50.82
40788;BME280;26497;52.494;7.546;2023-04-04T06:02:46;102371.94;;;5.04;50.71
40788;BME280;26497;52.494;7.546;2023-04-04T06:05:13;102378.22;;;5.25;51.99
40788;BME280;26497;52.494;7.546;2023-04-04T06:07:40;102377.94;;;5.55;51.56
40788;BME280;26497;52.494;7.546;2023-04-04T06:10:08;102376.31;;;5.77;50.69
40788;BME280;26497;52.494;7.546;2023-04-04T06:12:35;102381.56;;;5.97;49.94
40788;BME280;26497;52.494;7.546;2023-04-04T06:15:02;102382.81;;;6.23;49.56
40788;BME280;26497;52.494;7.546;2023-04-04T06:17:31;102377.78;;;6.69;49.34
40788;BME280;26497;52.494;7.546;2023-04-04T06:19:58;102380.06;;;7.46;50.37
40788;BME280;26497;52.494;7.546;2023-04-04T06:22:25;102372.81;;;8.55;49.10
40788;BME280;26497;52.494;7.546;2023-04-04T06:24:52;102383.72;;;9.47;46.63
40788;BME280;26497;52.494;7.546;2023-04-04T06:27:19;102386.44;;;10.71;43.69
40788;BME280;26497;52.494;7.546;2023-04-04T06:29:46;102380.75;;;12.02;40.27
40788;BME280;26497;52.494;7.546;2023-04-04T06:32:13;102379.94;;;13.00;36.00
40788;BME280;26497;52.494;7.546;2023-04-04T06:34:42;102381.03;;;13.70;33.86
40788;BME280;26497;52.494;7.546;2023-04-04T06:37:09;102382.78;;;14.40;32.07
40788;BME280;26497;52.494;7.546;2023-04-04T06:39:36;102383.44;;;15.07;30.84
40788;BME280;26497;52.494;7.546;2023-04-04T06:42:03;102380.22;;;15.53;29.97
40788;BME280;26497;52.494;7.546;2023-04-04T06:44:31;102383.28;;;16.28;29.08
40788;BME280;26497;52.494;7.546;2023-04-04T06:46:58;102374.53;;;16.97;27.94
40788;BME280;26497;52.494;7.546;2023-04-04T06:49:25;102372.72;;;17.41;27.70
40788;BME280;26497;52.494;7.546;2023-04-04T06:51:53;102369.06;;;17.79;26.85
40788;BME280;26497;52.494;7.546;2023-04-04T06:54:20;102366.09;;;18.51;26.32
40788;BME280;26497;52.494;7.546;2023-04-04T06:56:47;102360.38;;;19.00;25.29
40788;BME280;26497;52.494;7.546;2023-04-04T06:59:14;102364.22;;;19.62;24.27
40788;BME280;26497;52.494;7.546;2023-04-04T07:01:41;102363.06;;;19.85;23.84
40788;BME280;26497;52.494;7.546;2023-04-04T07:04:08;102369.78;;;20.20;23.70
40788;BME280;26497;52.494;7.546;2023-04-04T07:06:35;102371.22;;;20.46;23.41
40788;BME280;26497;52.494;7.546;2023-04-04T07:09:04;102376.34;;;20.58;23.10
40788;BME280;26497;52.494;7.546;2023-04-04T07:11:31;102362.84;;;20.66;22.79
40788;BME280;26497;52.494;7.546;2023-04-04T07:13:58;102366.03;;;20.32;23.00
40788;BME280;26497;52.494;7.546;2023-04-04T07:16:25;102360.66;;;20.33;23.08
40788;BME280;26497;52.494;7.546;2023-04-04T07:18:52;102361.22;;;20.54;22.86
40788;BME280;26497;52.494;7.546;2023-04-04T07:21:19;102369.47;;;21.00;22.24
40788;BME280;26497;52.494;7.546;2023-04-04T07:23:47;102362.25;;;21.52;21.42
40788;BME280;26497;52.494;7.546;2023-04-04T07:26:16;102359.13;;;22.18;21.41
40788;BME280;26497;52.494;7.546;2023-04-04T07:28:43;102368.94;;;22.61;20.35
40788;BME280;26497;52.494;7.546;2023-04-04T07:31:10;102362.78;;;22.92;20.21
40788;BME280;26497;52.494;7.546;2023-04-04T07:33:39;102359.56;;;23.12;19.67
40788;BME280;26497;52.494;7.546;2023-04-04T07:36:06;102352.75;;;22.99;19.90
40788;BME280;26497;52.494;7.546;2023-04-04T07:38:34;102356.03;;;23.10;19.92
40788;BME280;26497;52.494;7.546;2023-04-04T07:41:01;102361.22;;;22.83;20.04
40788;BME280;26497;52.494;7.546;2023-04-04T07:43:29;102359.28;;;22.89;20.07
40788;BME280;26497;52.494;7.546;2023-04-04T07:45:56;102360.13;;;22.91;19.71
40788;BME280;26497;52.494;7.546;2023-04-04T07:48:24;102353.72;;;22.96;19.43
40788;BME280;26497;52.494;7.546;2023-04-04T07:50:52;102356.38;;;23.33;19.56
40788;BME280;26497;52.494;7.546;2023-04-04T07:53:19;102357.28;;;23.65;18.57
40788;BME280;26497;52.494;7.546;2023-04-04T07:55:47;102351.78;;;23.99;18.41
40788;BME280;26497;52.494;7.546;2023-04-04T07:58:14;102351.88;;;24.26;18.12
40788;BME280;26497;52.494;7.546;2023-04-04T08:00:42;102344.72;;;24.25;17.73
40788;BME280;26497;52.494;7.546;2023-04-04T08:03:09;102356.31;;;24.29;17.70
40788;BME280;26497;52.494;7.546;2023-04-04T08:05:36;102352.63;;;24.87;17.52
40788;BME280;26497;52.494;7.546;2023-04-04T08:08:03;102352.41;;;25.20;17.29
40788;BME280;26497;52.494;7.546;2023-04-04T08:10:31;102344.78;;;25.31;16.81
40788;BME280;26497;52.494;7.546;2023-04-04T08:12:58;102354.97;;;25.23;16.58
40788;BME280;26497;52.494;7.546;2023-04-04T08:15:25;102340.28;;;25.07;17.29
40788;BME280;26497;52.494;7.546;2023-04-04T08:17:53;102338.47;;;25.07;17.10
40788;BME280;26497;52.494;7.546;2023-04-04T08:20:20;102334.75;;;24.84;16.86
40788;BME280;26497;52.494;7.546;2023-04-04T08:22:47;102332.09;;;24.83;17.09
40788;BME280;26497;52.494;7.546;2023-04-04T08:25:14;102332.88;;;24.58;17.31
40788;BME280;26497;52.494;7.546;2023-04-04T08:27:41;102332.72;;;24.36;17.18
40788;BME280;26497;52.494;7.546;2023-04-04T08:30:11;102335.06;;;24.18;16.85
40788;BME280;26497;52.494;7.546;2023-04-04T08:32:38;102323.03;;;24.30;17.34
40788;BME280;26497;52.494;7.546;2023-04-04T08:35:08;102331.03;;;24.32;17.27
40788;BME280;26497;52.494;7.546;2023-04-04T08:37:36;102335.19;;;24.43;17.49
40788;BME280;26497;52.494;7.546;2023-04-04T08:40:06;102329.59;;;24.77;17.04
40788;BME280;26497;52.494;7.546;2023-04-04T08:42:33;102335.38;;;24.64;16.72
40788;BME280;26497;52.494;7.546;2023-04-04T08:45:03;102341.75;;;24.62;16.85
40788;BME280;26497;52.494;7.546;2023-04-04T08:47:31;102336.19;;;24.66;16.47
40788;BME280;26497;52.494;7.546;2023-04-04T08:50:03;102334.22;;;24.71;16.49
40788;BME280;26497;52.494;7.546;2023-04-04T08:52:33;102328.31;;;24.60;16.56
40788;BME280;26497;52.494;7.546;2023-04-04T08:55:01;102334.84;;;24.53;17.05
40788;BME280;26497;52.494;7.546;2023-04-04T08:57:30;102331.28;;;23.94;17.18
40788;BME280;26497;52.494;7.546;2023-04-04T08:59:58;102336.38;;;23.73;17.36
40788;BME280;26497;52.494;7.546;2023-04-04T09:02:29;102332.28;;;23.60;17.53
40788;BME280;26497;52.494;7.546;2023-04-04T09:05:00;102339.00;;;22.75;18.92
40788;BME280;26497;52.494;7.546;2023-04-04T09:07:28;102334.63;;;23.40;18.11
40788;BME280;26497;52.494;7.546;2023-04-04T09:09:57;102339.22;;;23.98;17.81
40788;BME280;26497;52.494;7.546;2023-04-04T09:12:25;102331.94;;;24.32;16.48
40788;BME280;26497;52.494;7.546;2023-04-04T09:14:53;102335.41;;;24.07;16.91
40788;BME280;26497;52.494;7.546;2023-04-04T09:17:22;102328.66;;;24.22;16.06
40788;BME280;26497;52.494;7.546;2023-04-04T09:19:49;102327.59;;;24.55;16.71
40788;BME280;26497;52.494;7.546;2023-04-04T09:22:17;102325.03;;;24.79;16.24
40788;BME280;26497;52.494;7.546;2023-04-04T09:24:44;102323.47;;;24.44;15.84
40788;BME280;26497;52.494;7.546;2023-04-04T09:27:15;102318.56;;;23.69;16.08
40788;BME280;26497;52.494;7.546;2023-04-04T09:29:42;102315.53;;;23.50;17.05
40788;BME280;26497;52.494;7.546;2023-04-04T09:32:12;102312.41;;;23.65;16.33
40788;BME280;26497;52.494;7.546;2023-04-04T09:34:40;102311.72;;;23.87;16.38
40788;BME280;26497;52.494;7.546;2023-04-04T09:37:08;102305.78;;;24.07;15.58
40788;BME280;26497;52.494;7.546;2023-04-04T09:39:39;102309.97;;;24.44;16.33
40788;BME280;26497;52.494;7.546;2023-04-04T09:42:06;102306.84;;;25.11;15.59
40788;BME280;26497;52.494;7.546;2023-04-04T09:44:36;102303.41;;;25.31;14.95
40788;BME280;26497;52.494;7.546;2023-04-04T09:47:24;102305.47;;;25.24;14.96
40788;BME280;26497;52.494;7.546;2023-04-04T09:49:52;102303.13;;;24.88;16.40
40788;BME280;26497;52.494;7.546;2023-04-04T09:52:19;102301.38;;;24.87;15.97
40788;BME280;26497;52.494;7.546;2023-04-04T09:54:56;102295.94;;;24.88;15.49
40788;BME280;26497;52.494;7.546;2023-04-04T09:57:25;102297.34;;;24.73;14.40
40788;BME280;26497;52.494;7.546;2023-04-04T09:59:57;102290.97;;;24.76;13.55
40788;BME280;26497;52.494;7.546;2023-04-04T10:02:25;102290.22;;;24.44;14.53
40788;BME280;26497;52.494;7.546;2023-04-04T10:04:53;102297.16;;;23.64;14.26
40788;BME280;26497;52.494;7.546;2023-04-04T10:07:22;102301.69;;;23.31;14.96
40788;BME280;26497;52.494;7.546;2023-04-04T10:09:50;102301.47;;;23.70;14.52
40788;BME280;26497;52.494;7.546;2023-04-04T10:12:21;102296.63;;;23.83;14.61
40788;BME280;26497;52.494;7.546;2023-04-04T10:14:56;102301.16;;;24.39;14.15
40788;BME280;26497;52.494;7.546;2023-04-04T10:17:25;102298.16;;;24.49;14.26
40788;BME280;26497;52.494;7.546;2023-04-04T10:19:57;102301.81;;;24.46;14.36
40788;BME280;26497;52.494;7.546;2023-04-04T10:22:26;102295.44;;;24.22;14.23
40788;BME280;26497;52.494;7.546;2023-04-04T10:24:53;102286.25;;;23.97;14.20
40788;BME280;26497;52.494;7.546;2023-04-04T10:27:20;102291.25;;;23.51;14.76
40788;BME280;26497;52.494;7.546;2023-04-04T10:29:47;102284.53;;;23.35;14.88
40788;BME280;26497;52.494;7.546;2023-04-04T10:32:22;102285.97;;;24.08;14.87
40788;BME280;26497;52.494;7.546;2023-04-04T10:35:01;102279.66;;;24.63;14.88
40788;BME280;26497;52.494;7.546;2023-04-04T10:37:35;102284.56;;;24.79;13.92
40788;BME280;26497;52.494;7.546;2023-04-04T10:40:08;102282.81;;;24.51;15.10
40788;BME280;26497;52.494;7.546;2023-04-04T10:42:39;102285.75;;;24.70;14.51
40788;BME280;26497;52.494;7.546;2023-04-04T10:45:08;102279.47;;;24.96;13.75
40788;BME280;26497;52.494;7.546;2023-04-04T10:47:37;102276.66;;;24.99;13.71
40788;BME280;26497;52.494;7.546;2023-04-04T10:50:06;102273.53;;;24.86;13.86
40788;BME280;26497;52.494;7.546;2023-04-04T10:52:36;102280.38;;;24.97;13.84
40788;BME280;26497;52.494;7.546;2023-04-04T10:55:07;102288.66;;;25.16;14.18
40788;BME280;26497;52.494;7.546;2023-04-04T10:57:38;102280.75;;;25.11;13.18
40788;BME280;26497;52.494;7.546;2023-04-04T11:00:08;102283.69;;;23.64;15.10
40788;BME280;26497;52.494;7.546;2023-04-04T11:02:48;102267.03;;;24.11;15.37
40788;BME280;26497;52.494;7.546;2023-04-04T11:05:22;102266.34;;;24.32;15.87
40788;BME280;26497;52.494;7.546;2023-04-04T11:07:58;102263.56;;;24.62;14.92
40788;BME280;26497;52.494;7.546;2023-04-04T11:10:28;102261.09;;;24.82;14.42
40788;BME280;26497;52.494;7.546;2023-04-04T11:12:57;102262.00;;;25.07;14.27
40788;BME280;26497;52.494;7.546;2023-04-04T11:15:45;102249.06;;;25.16;13.80
40788;BME280;26497;52.494;7.546;2023-04-04T11:18:14;102258.53;;;24.78;14.12
40788;BME280;26497;52.494;7.546;2023-04-04T11:20:43;102254.03;;;25.03;14.70
40788;BME280;26497;52.494;7.546;2023-04-04T11:23:16;102245.81;;;25.07;14.14
40788;BME280;26497;52.494;7.546;2023-04-04T11:25:50;102243.78;;;24.88;14.28
40788;BME280;26497;52.494;7.546;2023-04-04T11:28:43;102235.19;;;24.77;15.17
40788;BME280;26497;52.494;7.546;2023-04-04T11:31:26;102234.28;;;24.24;15.78
40788;BME280;26497;52.494;7.546;2023-04-04T11:33:57;102232.69;;;23.88;15.88
40788;BME280;26497;52.494;7.546;2023-04-04T11:36:49;102225.66;;;24.12;15.22
40788;BME280;26497;52.494;7.546;2023-04-04T11:39:24;102229.75;;;24.51;14.32
40788;BME280;26497;52.494;7.546;2023-04-04T11:41:54;102229.91;;;24.20;15.30
40788;BME280;26497;52.494;7.546;2023-04-04T11:44:25;102223.38;;;24.00;14.41
40788;BME280;26497;52.494;7.546;2023-04-04T11:46:59;102226.59;;;23.53;14.19
40788;BME280;26497;52.494;7.546;2023-04-04T11:49:29;102222.25;;;23.17;15.04
40788;BME280;26497;52.494;7.546;2023-04-04T11:52:04;102224.31;;;22.38;15.54
40788;BME280;26497;52.494;7.546;2023-04-04T11:54:32;102218.19;;;21.95;16.01
40788;BME280;26497;52.494;7.546;2023-04-04T11:56:59;102218.19;;;21.95;15.88
40788;BME280;26497;52.494;7.546;2023-04-04T11:59:28;102209.47;;;22.23;16.48
40788;BME280;26497;52.494;7.546;2023-04-04T12:01:56;102207.22;;;22.41;15.93
40788;BME280;26497;52.494;7.546;2023-04-04T12:04:24;102199.72;;;23.20;15.32
40788;BME280;26497;52.494;7.546;2023-04-04T12:06:54;102197.88;;;23.82;15.07
40788;BME280;26497;52.494;7.546;2023-04-04T12:09:25;102198.44;;;23.92;15.29
40788;BME280;26497;52.494;7.546;2023-04-04T12:11:54;102191.34;;;23.61;15.03
40788;BME280;26497;52.494;7.546;2023-04-04T12:14:22;102192.44;;;23.83;15.08
40788;BME280;26497;52.494;7.546;2023-04-04T12:16:52;102187.59;;;23.36;15.70
40788;BME280;26497;52.494;7.546;2023-04-04T12:19:21;102190.03;;;22.12;16.64
40788;BME280;26497;52.494;7.546;2023-04-04T12:21:50;102181.50;;;22.98;16.02
40788;BME280;26497;52.494;7.546;2023-04-04T12:24:19;102187.78;;;22.98;16.43
40788;BME280;26497;52.494;7.546;2023-04-04T12:26:51;102184.34;;;23.25;15.56
40788;BME280;26497;52.494;7.546;2023-04-04T12:29:21;102177.97;;;23.58;16.12
40788;BME280;26497;52.494;7.546;2023-04-04T12:31:49;102167.94;;;23.91;15.60
40788;BME280;26497;52.494;7.546;2023-04-04T12:34:18;102161.59;;;24.21;15.40
40788;BME280;26497;52.494;7.546;2023-04-04T12:36:46;102160.72;;;23.35;17.55
40788;BME280;26497;52.494;7.546;2023-04-04T12:39:15;102169.13;;;23.82;15.94
40788;BME280;26497;52.494;7.546;2023-04-04T12:41:52;102161.53;;;24.22;15.80
40788;BME280;26497;52.494;7.546;2023-04-04T12:44:28;102157.66;;;24.56;16.88
40788;BME280;26497;52.494;7.546;2023-04-04T12:46:57;102148.66;;;25.07;15.94
40788;BME280;26497;52.494;7.546;2023-04-04T12:49:29;102145.75;;;24.62;15.86
40788;BME280;26497;52.494;7.546;2023-04-04T12:51:56;102139.84;;;24.52;15.25
40788;BME280;26497;52.494;7.546;2023-04-04T12:54:30;102148.00;;;23.97;16.84
40788;BME280;26497;52.494;7.546;2023-04-04T12:57:01;102136.25;;;23.73;16.39
40788;BME280;26497;52.494;7.546;2023-04-04T12:59:33;102140.97;;;24.70;15.40
40788;BME280;26497;52.494;7.546;2023-04-04T13:02:01;102137.31;;;25.21;15.39
40788;BME280;26497;52.494;7.546;2023-04-04T13:04:30;102121.66;;;25.54;14.98